sensor_id;sensor_type;location;lat;lon;timestamp;temperature;humidity
18729;DHT22;9493;51.884;5.188;2022-08-19T00:02:23;18.40;99.90
18729;DHT22;9493;51.884;5.188;2022-08-19T00:04:50;18.40;99.90
18729;DHT22;9493;51.884;5.188;2022-08-19T00:07:18;18.40;99.90
18729;DHT22;9493;51.884;5.188;2022-08-19T00:09:46;18.50;99.90
18729;DHT22;9493;51.884;5.188;2022-08-19T00:12:13;18.40;99.90
18729;DHT22;9493;51.884;5.188;2022-08-19T00:14:40;18.30;99.90
18729;DHT22;9493;51.884;5.188;2022-08-19T00:17:08;18.30;99.90
18729;DHT22;9493;51.884;5.188;2022-08-19T00:19:35;18.20;99.90
18729;DHT22;9493;51.884;5.188;2022-08-19T00:22:02;18.30;99.90
18729;DHT22;9493;51.884;5.188;2022-08-19T00:24:31;18.30;99.90
18729;DHT22;9493;51.884;5.188;2022-08-19T00:27:00;18.20;99.90
18729;DHT22;9493;51.884;5.188;2022-08-19T00:29:28;18.20;99.90
18729;DHT22;9493;51.884;5.188;2022-08-19T00:31:57;18.10;99.90
18729;DHT22;9493;51.884;5.188;2022-08-19T00:34:25;18.10;99.90
18729;DHT22;9493;51.884;5.188;2022-08-19T00:36:54;18.10;99.90
18729;DHT22;9493;51.884;5.188;2022-08-19T00:39:21;18.00;99.90
18729;DHT22;9493;51.884;5.188;2022-08-19T00:41:48;18.10;99.90
18729;DHT22;9493;51.884;5.188;2022-08-19T00:44:20;18.10;99.90
18729;DHT22;9493;51.884;5.188;2022-08-19T00:46:49;18.10;99.90
18729;DHT22;9493;51.884;5.188;2022-08-19T00:49:20;18.10;99.90
18729;DHT22;9493;51.884;5.188;2022-08-19T00:51:51;18.10;99.90
18729;DHT22;9493;51.884;5.188;2022-08-19T00:54:19;18.10;99.90
18729;DHT22;9493;51.884;5.188;2022-08-19T00:56:47;18.00;99.90
18729;DHT22;9493;51.884;5.188;2022-08-19T00:59:16;18.00;99.90
18729;DHT22;9493;51.884;5.188;2022-08-19T01:01:44;18.00;99.90
18729;DHT22;9493;51.884;5.188;2022-08-19T01:04:12;18.00;99.90
18729;DHT22;9493;51.884;5.188;2022-08-19T01:06:39;18.00;99.90
18729;DHT22;9493;51.884;5.188;2022-08-19T01:09:08;18.00;99.90
18729;DHT22;9493;51.884;5.188;2022-08-19T01:11:37;17.90;99.90
18729;DHT22;9493;51.884;5.188;2022-08-19T01:14:07;17.90;99.90
18729;DHT22;9493;51.884;5.188;2022-08-19T01:16:37;17.90;99.90
18729;DHT22;9493;51.884;5.188;2022-08-19T01:19:10;17.90;99.90
18729;DHT22;9493;51.884;5.188;2022-08-19T01:21:43;17.90;99.90
18729;DHT22;9493;51.884;5.188;2022-08-19T01:24:14;17.80;99.90
18729;DHT22;9493;51.884;5.188;2022-08-19T01:26:44;17.80;99.90
18729;DHT22;9493;51.884;5.188;2022-08-19T01:29:11;17.80;99.90
18729;DHT22;9493;51.884;5.188;2022-08-19T01:31:38;17.80;99.90
18729;DHT22;9493;51.884;5.188;2022-08-19T01:34:06;17.80;99.90
18729;DHT22;9493;51.884;5.188;2022-08-19T01:36:36;17.70;99.90
18729;DHT22;9493;51.884;5.188;2022-08-19T01:39:07;17.70;99.90
18729;DHT22;9493;51.884;5.188;2022-08-19T01:41:36;17.60;99.90
18729;DHT22;9493;51.884;5.188;2022-08-19T01:44:05;17.50;99.90
18729;DHT22;9493;51.884;5.188;2022-08-19T01:46:33;17.50;99.90
18729;DHT22;9493;51.884;5.188;2022-08-19T01:49:00;17.60;99.90
18729;DHT22;9493;51.884;5.188;2022-08-19T01:51:27;17.50;99.90
18729;DHT22;9493;51.884;5.188;2022-08-19T01:53:54;17.60;99.90
18729;DHT22;9493;51.884;5.188;2022-08-19T01:56:21;17.60;99.90
18729;DHT22;9493;51.884;5.188;2022-08-19T01:58:53;17.50;99.90
18729;DHT22;9493;51.884;5.188;2022-08-19T02:01:20;17.50;99.90
18729;DHT22;9493;51.884;5.188;2022-08-19T02:03:47;17.50;99.90
18729;DHT22;9493;51.884;5.188;2022-08-19T02:06:14;17.50;99.90
18729;DHT22;9493;51.884;5.188;2022-08-19T02:08:43;17.40;99.90
18729;DHT22;9493;51.884;5.188;2022-08-19T02:11:18;17.50;99.90
18729;DHT22;9493;51.884;5.188;2022-08-19T02:13:46;17.40;99.90
18729;DHT22;9493;51.884;5.188;2022-08-19T02:16:16;17.40;99.90
18729;DHT22;9493;51.884;5.188;2022-08-19T02:18:43;17.40;99.90
18729;DHT22;9493;51.884;5.188;2022-08-19T02:21:10;17.40;99.90
18729;DHT22;9493;51.884;5.188;2022-08-19T02:23:38;17.40;99.90
18729;DHT22;9493;51.884;5.188;2022-08-19T02:26:05;17.50;99.90
18729;DHT22;9493;51.884;5.188;2022-08-19T02:28:32;17.40;99.90
18729;DHT22;9493;51.884;5.188;2022-08-19T02:30:59;17.20;99.90
18729;DHT22;9493;51.884;5.188;2022-08-19T02:33:29;17.10;99.90
18729;DHT22;9493;51.884;5.188;2022-08-19T02:35:56;17.00;99.90
18729;DHT22;9493;51.884;5.188;2022-08-19T02:38:23;16.90;99.90
18729;DHT22;9493;51.884;5.188;2022-08-19T02:40:54;16.80;99.90
18729;DHT22;9493;51.884;5.188;2022-08-19T02:43:21;16.80;99.90
18729;DHT22;9493;51.884;5.188;2022-08-19T02:45:49;16.90;99.90
18729;DHT22;9493;51.884;5.188;2022-08-19T02:48:17;16.80;99.90
18729;DHT22;9493;51.884;5.188;2022-08-19T02:50:46;16.90;99.90
18729;DHT22;9493;51.884;5.188;2022-08-19T02:53:14;17.30;99.90
18729;DHT22;9493;51.884;5.188;2022-08-19T02:55:44;16.90;99.90
18729;DHT22;9493;51.884;5.188;2022-08-19T02:58:12;16.80;99.90
18729;DHT22;9493;51.884;5.188;2022-08-19T03:00:44;16.80;99.90
18729;DHT22;9493;51.884;5.188;2022-08-19T03:03:11;16.80;99.90
18729;DHT22;9493;51.884;5.188;2022-08-19T03:05:38;16.70;99.90
18729;DHT22;9493;51.884;5.188;2022-08-19T03:08:08;16.60;99.90
18729;DHT22;9493;51.884;5.188;2022-08-19T03:10:41;16.60;99.90
18729;DHT22;9493;51.884;5.188;2022-08-19T03:13:10;16.50;99.90
18729;DHT22;9493;51.884;5.188;2022-08-19T03:15:40;16.60;99.90
18729;DHT22;9493;51.884;5.188;2022-08-19T03:18:07;16.60;99.90
18729;DHT22;9493;51.884;5.188;2022-08-19T03:20:40;16.60;99.90
18729;DHT22;9493;51.884;5.188;2022-08-19T03:23:08;16.70;99.90
18729;DHT22;9493;51.884;5.188;2022-08-19T03:25:37;16.70;99.90
18729;DHT22;9493;51.884;5.188;2022-08-19T03:28:06;16.70;99.90
18729;DHT22;9493;51.884;5.188;2022-08-19T03:30:32;16.80;99.90
18729;DHT22;9493;51.884;5.188;2022-08-19T03:32:59;16.80;99.90
18729;DHT22;9493;51.884;5.188;2022-08-19T03:35:26;16.70;99.90
18729;DHT22;9493;51.884;5.188;2022-08-19T03:37:53;16.70;99.90
18729;DHT22;9493;51.884;5.188;2022-08-19T03:40:23;16.60;99.90
18729;DHT22;9493;51.884;5.188;2022-08-19T03:42:50;16.60;99.90
18729;DHT22;9493;51.884;5.188;2022-08-19T03:45:17;16.70;99.90
18729;DHT22;9493;51.884;5.188;2022-08-19T03:47:44;16.70;99.90
18729;DHT22;9493;51.884;5.188;2022-08-19T03:50:12;16.70;99.90
18729;DHT22;9493;51.884;5.188;2022-08-19T03:52:38;16.70;99.90
18729;DHT22;9493;51.884;5.188;2022-08-19T03:55:06;16.70;99.90
18729;DHT22;9493;51.884;5.188;2022-08-19T03:57:34;16.70;99.90
18729;DHT22;9493;51.884;5.188;2022-08-19T04:00:03;16.70;99.90
18729;DHT22;9493;51.884;5.188;2022-08-19T04:02:32;16.70;99.90
18729;DHT22;9493;51.884;5.188;2022-08-19T04:04:59;16.70;99.90
18729;DHT22;9493;51.884;5.188;2022-08-19T04:07:26;16.50;99.90
18729;DHT22;9493;51.884;5.188;2022-08-19T04:09:53;16.50;99.90
18729;DHT22;9493;51.884;5.188;2022-08-19T04:12:20;16.60;99.90
18729;DHT22;9493;51.884;5.188;2022-08-19T04:14:48;16.60;99.90
18729;DHT22;9493;51.884;5.188;2022-08-19T04:17:15;16.60;99.90
18729;DHT22;9493;51.884;5.188;2022-08-19T04:19:42;16.70;99.90
18729;DHT22;9493;51.884;5.188;2022-08-19T04:22:09;16.60;99.90
18729;DHT22;9493;51.884;5.188;2022-08-19T04:24:37;16.70;99.90
18729;DHT22;9493;51.884;5.188;2022-08-19T04:27:05;16.70;99.90
18729;DHT22;9493;51.884;5.188;2022-08-19T04:29:32;16.80;99.90
18729;DHT22;9493;51.884;5.188;2022-08-19T04:32:01;17.00;99.90
18729;DHT22;9493;51.884;5.188;2022-08-19T04:34:29;17.10;99.90
18729;DHT22;9493;51.884;5.188;2022-08-19T04:36:57;17.10;99.90
18729;DHT22;9493;51.884;5.188;2022-08-19T04:39:26;17.10;99.90
18729;DHT22;9493;51.884;5.188;2022-08-19T04:42:14;17.00;99.90
18729;DHT22;9493;51.884;5.188;2022-08-19T04:44:58;16.90;99.90
18729;DHT22;9493;51.884;5.188;2022-08-19T04:47:27;17.00;99.90
18729;DHT22;9493;51.884;5.188;2022-08-19T04:49:58;17.00;99.90
18729;DHT22;9493;51.884;5.188;2022-08-19T04:52:24;17.00;99.90
18729;DHT22;9493;51.884;5.188;2022-08-19T04:54:51;17.00;99.90
18729;DHT22;9493;51.884;5.188;2022-08-19T04:57:19;17.00;99.90
18729;DHT22;9493;51.884;5.188;2022-08-19T04:59:46;16.90;99.90
18729;DHT22;9493;51.884;5.188;2022-08-19T05:02:13;16.90;99.90
18729;DHT22;9493;51.884;5.188;2022-08-19T05:04:41;16.90;99.90
18729;DHT22;9493;51.884;5.188;2022-08-19T05:07:09;16.90;99.90
18729;DHT22;9493;51.884;5.188;2022-08-19T05:09:37;17.10;99.90
18729;DHT22;9493;51.884;5.188;2022-08-19T05:12:04;17.00;99.90
18729;DHT22;9493;51.884;5.188;2022-08-19T05:14:31;17.00;99.90
18729;DHT22;9493;51.884;5.188;2022-08-19T05:16:58;17.00;99.90
18729;DHT22;9493;51.884;5.188;2022-08-19T05:19:26;17.00;99.90
18729;DHT22;9493;51.884;5.188;2022-08-19T05:22:12;17.00;99.90
18729;DHT22;9493;51.884;5.188;2022-08-19T05:24:56;17.10;99.90
18729;DHT22;9493;51.884;5.188;2022-08-19T05:27:23;17.20;99.90
18729;DHT22;9493;51.884;5.188;2022-08-19T05:29:50;17.20;99.90
18729;DHT22;9493;51.884;5.188;2022-08-19T05:32:17;17.20;99.90
18729;DHT22;9493;51.884;5.188;2022-08-19T05:34:43;17.30;99.90
18729;DHT22;9493;51.884;5.188;2022-08-19T05:37:12;17.30;99.90
18729;DHT22;9493;51.884;5.188;2022-08-19T05:39:39;17.30;99.90
18729;DHT22;9493;51.884;5.188;2022-08-19T05:42:08;17.40;99.90
18729;DHT22;9493;51.884;5.188;2022-08-19T05:44:37;17.40;99.90
18729;DHT22;9493;51.884;5.188;2022-08-19T05:47:06;17.50;99.90
18729;DHT22;9493;51.884;5.188;2022-08-19T05:49:34;17.60;99.90
18729;DHT22;9493;51.884;5.188;2022-08-19T05:52:03;17.70;99.90
18729;DHT22;9493;51.884;5.188;2022-08-19T05:54:33;17.70;99.90
18729;DHT22;9493;51.884;5.188;2022-08-19T05:57:02;17.70;99.90
18729;DHT22;9493;51.884;5.188;2022-08-19T05:59:28;17.70;99.90
18729;DHT22;9493;51.884;5.188;2022-08-19T06:01:57;17.80;99.90
18729;DHT22;9493;51.884;5.188;2022-08-19T06:04:25;17.80;99.90
18729;DHT22;9493;51.884;5.188;2022-08-19T06:06:53;17.90;99.90
18729;DHT22;9493;51.884;5.188;2022-08-19T06:09:20;18.00;99.90
18729;DHT22;9493;51.884;5.188;2022-08-19T06:11:50;17.90;99.90
18729;DHT22;9493;51.884;5.188;2022-08-19T06:14:21;18.00;99.90
18729;DHT22;9493;51.884;5.188;2022-08-19T06:16:48;18.10;99.90
18729;DHT22;9493;51.884;5.188;2022-08-19T06:19:18;18.00;99.90
18729;DHT22;9493;51.884;5.188;2022-08-19T06:21:47;18.10;99.90
18729;DHT22;9493;51.884;5.188;2022-08-19T06:24:16;18.10;99.90
18729;DHT22;9493;51.884;5.188;2022-08-19T06:26:46;18.20;99.90
18729;DHT22;9493;51.884;5.188;2022-08-19T06:29:16;18.30;99.90
18729;DHT22;9493;51.884;5.188;2022-08-19T06:31:46;18.40;99.90
18729;DHT22;9493;51.884;5.188;2022-08-19T06:34:15;18.50;99.90
18729;DHT22;9493;51.884;5.188;2022-08-19T06:36:45;18.40;99.90
18729;DHT22;9493;51.884;5.188;2022-08-19T06:39:14;18.40;99.90
18729;DHT22;9493;51.884;5.188;2022-08-19T06:41:43;18.40;99.90
18729;DHT22;9493;51.884;5.188;2022-08-19T06:44:11;18.30;99.90
18729;DHT22;9493;51.884;5.188;2022-08-19T06:46:40;18.40;99.90
18729;DHT22;9493;51.884;5.188;2022-08-19T06:49:07;18.50;99.90
18729;DHT22;9493;51.884;5.188;2022-08-19T06:51:35;18.40;99.90
18729;DHT22;9493;51.884;5.188;2022-08-19T06:54:03;18.60;99.90
18729;DHT22;9493;51.884;5.188;2022-08-19T06:56:31;18.60;99.90
18729;DHT22;9493;51.884;5.188;2022-08-19T06:58:59;18.80;99.90
18729;DHT22;9493;51.884;5.188;2022-08-19T07:01:26;18.90;99.90
18729;DHT22;9493;51.884;5.188;2022-08-19T07:03:55;19.20;99.90
18729;DHT22;9493;51.884;5.188;2022-08-19T07:06:23;19.00;99.90
18729;DHT22;9493;51.884;5.188;2022-08-19T07:08:50;19.00;99.90
18729;DHT22;9493;51.884;5.188;2022-08-19T07:11:18;19.10;99.90
18729;DHT22;9493;51.884;5.188;2022-08-19T07:13:46;19.10;99.90
18729;DHT22;9493;51.884;5.188;2022-08-19T07:16:15;19.00;99.90
18729;DHT22;9493;51.884;5.188;2022-08-19T07:18:42;19.10;99.90
18729;DHT22;9493;51.884;5.188;2022-08-19T07:21:13;19.10;99.90
18729;DHT22;9493;51.884;5.188;2022-08-19T07:23:41;19.20;99.90
18729;DHT22;9493;51.884;5.188;2022-08-19T07:26:09;19.20;99.90
18729;DHT22;9493;51.884;5.188;2022-08-19T07:28:36;19.20;99.90
18729;DHT22;9493;51.884;5.188;2022-08-19T07:31:05;19.30;99.90
18729;DHT22;9493;51.884;5.188;2022-08-19T07:33:32;19.40;99.90
18729;DHT22;9493;51.884;5.188;2022-08-19T07:36:01;19.50;99.90
18729;DHT22;9493;51.884;5.188;2022-08-19T07:38:29;19.40;99.90
18729;DHT22;9493;51.884;5.188;2022-08-19T07:40:56;19.50;99.90
18729;DHT22;9493;51.884;5.188;2022-08-19T07:43:23;19.50;99.90
18729;DHT22;9493;51.884;5.188;2022-08-19T07:45:50;19.60;99.90
18729;DHT22;9493;51.884;5.188;2022-08-19T07:48:18;19.90;99.90
18729;DHT22;9493;51.884;5.188;2022-08-19T07:50:45;19.90;99.90
18729;DHT22;9493;51.884;5.188;2022-08-19T07:53:13;20.10;99.90
18729;DHT22;9493;51.884;5.188;2022-08-19T07:55:42;19.90;99.90
18729;DHT22;9493;51.884;5.188;2022-08-19T07:58:10;20.00;99.90
18729;DHT22;9493;51.884;5.188;2022-08-19T08:00:37;20.00;99.90
18729;DHT22;9493;51.884;5.188;2022-08-19T08:03:04;20.30;99.90
18729;DHT22;9493;51.884;5.188;2022-08-19T08:05:31;20.20;99.90
18729;DHT22;9493;51.884;5.188;2022-08-19T08:08:15;20.30;99.90
18729;DHT22;9493;51.884;5.188;2022-08-19T08:11:00;20.40;99.90
18729;DHT22;9493;51.884;5.188;2022-08-19T08:13:28;20.20;99.90
18729;DHT22;9493;51.884;5.188;2022-08-19T08:15:54;20.40;99.90
18729;DHT22;9493;51.884;5.188;2022-08-19T08:18:22;20.30;99.90
18729;DHT22;9493;51.884;5.188;2022-08-19T08:20:49;20.60;99.90
18729;DHT22;9493;51.884;5.188;2022-08-19T08:23:16;20.50;99.90
18729;DHT22;9493;51.884;5.188;2022-08-19T08:25:50;20.60;99.90
18729;DHT22;9493;51.884;5.188;2022-08-19T08:28:19;20.70;99.90
18729;DHT22;9493;51.884;5.188;2022-08-19T08:30:48;20.70;99.90
18729;DHT22;9493;51.884;5.188;2022-08-19T08:33:18;20.80;99.90
18729;DHT22;9493;51.884;5.188;2022-08-19T08:35:47;20.70;99.90
18729;DHT22;9493;51.884;5.188;2022-08-19T08:38:14;20.70;99.90
18729;DHT22;9493;51.884;5.188;2022-08-19T08:40:45;20.90;99.90
18729;DHT22;9493;51.884;5.188;2022-08-19T08:43:23;20.80;99.90
18729;DHT22;9493;51.884;5.188;2022-08-19T08:45:56;20.80;99.90
18729;DHT22;9493;51.884;5.188;2022-08-19T08:48:32;20.80;99.90
18729;DHT22;9493;51.884;5.188;2022-08-19T08:51:03;21.00;99.90
18729;DHT22;9493;51.884;5.188;2022-08-19T08:53:32;21.10;99.90
18729;DHT22;9493;51.884;5.188;2022-08-19T08:56:03;20.90;99.90
18729;DHT22;9493;51.884;5.188;2022-08-19T08:58:39;20.90;99.90
18729;DHT22;9493;51.884;5.188;2022-08-19T09:01:10;20.70;99.90
18729;DHT22;9493;51.884;5.188;2022-08-19T09:03:39;20.50;99.90
18729;DHT22;9493;51.884;5.188;2022-08-19T09:06:12;20.80;99.90
18729;DHT22;9493;51.884;5.188;2022-08-19T09:08:48;20.60;99.90
18729;DHT22;9493;51.884;5.188;2022-08-19T09:11:20;20.80;99.90
18729;DHT22;9493;51.884;5.188;2022-08-19T09:14:02;21.00;99.90
18729;DHT22;9493;51.884;5.188;2022-08-19T09:16:31;20.80;99.90
18729;DHT22;9493;51.884;5.188;2022-08-19T09:19:02;20.80;99.90
18729;DHT22;9493;51.884;5.188;2022-08-19T09:21:29;20.90;99.90
18729;DHT22;9493;51.884;5.188;2022-08-19T09:23:57;20.70;99.90
18729;DHT22;9493;51.884;5.188;2022-08-19T09:26:24;20.90;99.90
18729;DHT22;9493;51.884;5.188;2022-08-19T09:28:53;20.80;99.90
18729;DHT22;9493;51.884;5.188;2022-08-19T09:31:27;20.60;99.90
18729;DHT22;9493;51.884;5.188;2022-08-19T09:33:55;20.50;99.90
18729;DHT22;9493;51.884;5.188;2022-08-19T09:36:23;20.60;99.90
18729;DHT22;9493;51.884;5.188;2022-08-19T09:38:51;20.60;99.90
18729;DHT22;9493;51.884;5.188;2022-08-19T09:41:20;20.60;99.90
18729;DHT22;9493;51.884;5.188;2022-08-19T09:43:50;20.70;99.90
18729;DHT22;9493;51.884;5.188;2022-08-19T09:46:21;20.80;99.90
18729;DHT22;9493;51.884;5.188;2022-08-19T09:48:49;21.10;99.90
18729;DHT22;9493;51.884;5.188;2022-08-19T09:51:19;20.90;99.90
18729;DHT22;9493;51.884;5.188;2022-08-19T09:53:47;21.20;99.90
18729;DHT22;9493;51.884;5.188;2022-08-19T09:56:16;21.20;99.90
18729;DHT22;9493;51.884;5.188;2022-08-19T09:58:43;21.30;99.90
18729;DHT22;9493;51.884;5.188;2022-08-19T10:01:15;21.40;99.90
18729;DHT22;9493;51.884;5.188;2022-08-19T10:03:47;21.60;99.90
18729;DHT22;9493;51.884;5.188;2022-08-19T10:06:18;21.70;99.90
18729;DHT22;9493;51.884;5.188;2022-08-19T10:08:45;21.70;99.90
18729;DHT22;9493;51.884;5.188;2022-08-19T10:11:13;21.50;99.90
18729;DHT22;9493;51.884;5.188;2022-08-19T10:13:42;21.60;99.90
18729;DHT22;9493;51.884;5.188;2022-08-19T10:16:11;21.50;99.90
18729;DHT22;9493;51.884;5.188;2022-08-19T10:18:40;21.60;99.90
18729;DHT22;9493;51.884;5.188;2022-08-19T10:21:14;21.80;99.90
18729;DHT22;9493;51.884;5.188;2022-08-19T10:23:44;21.90;99.90
18729;DHT22;9493;51.884;5.188;2022-08-19T10:26:14;22.00;99.90
18729;DHT22;9493;51.884;5.188;2022-08-19T10:28:42;22.10;99.90
18729;DHT22;9493;51.884;5.188;2022-08-19T10:31:15;22.20;99.90
18729;DHT22;9493;51.884;5.188;2022-08-19T10:33:43;22.50;99.90
18729;DHT22;9493;51.884;5.188;2022-08-19T10:36:13;22.50;99.90
18729;DHT22;9493;51.884;5.188;2022-08-19T10:38:43;22.60;99.90
18729;DHT22;9493;51.884;5.188;2022-08-19T10:41:12;22.90;99.90
18729;DHT22;9493;51.884;5.188;2022-08-19T10:43:40;23.20;99.90
18729;DHT22;9493;51.884;5.188;2022-08-19T10:46:08;22.90;99.90
18729;DHT22;9493;51.884;5.188;2022-08-19T10:48:35;22.90;99.90
18729;DHT22;9493;51.884;5.188;2022-08-19T10:51:02;22.90;99.90
18729;DHT22;9493;51.884;5.188;2022-08-19T10:53:48;22.70;99.90
18729;DHT22;9493;51.884;5.188;2022-08-19T10:56:15;22.70;99.90
18729;DHT22;9493;51.884;5.188;2022-08-19T10:59:00;23.10;99.90
18729;DHT22;9493;51.884;5.188;2022-08-19T11:01:28;23.10;99.90
18729;DHT22;9493;51.884;5.188;2022-08-19T11:03:56;23.20;99.90
18729;DHT22;9493;51.884;5.188;2022-08-19T11:06:24;23.20;99.90
18729;DHT22;9493;51.884;5.188;2022-08-19T11:08:53;23.50;99.90
18729;DHT22;9493;51.884;5.188;2022-08-19T11:11:21;23.40;99.90
18729;DHT22;9493;51.884;5.188;2022-08-19T11:13:49;23.50;99.90
18729;DHT22;9493;51.884;5.188;2022-08-19T11:16:18;23.80;99.90
18729;DHT22;9493;51.884;5.188;2022-08-19T11:18:48;23.90;99.90
18729;DHT22;9493;51.884;5.188;2022-08-19T11:21:18;24.00;99.90
18729;DHT22;9493;51.884;5.188;2022-08-19T11:23:46;23.90;99.90
18729;DHT22;9493;51.884;5.188;2022-08-19T11:26:15;24.50;99.90
18729;DHT22;9493;51.884;5.188;2022-08-19T11:28:42;24.50;99.90
18729;DHT22;9493;51.884;5.188;2022-08-19T11:31:11;25.30;99.90
18729;DHT22;9493;51.884;5.188;2022-08-19T11:33:38;25.50;99.90
18729;DHT22;9493;51.884;5.188;2022-08-19T11:36:06;25.80;99.90
18729;DHT22;9493;51.884;5.188;2022-08-19T11:38:33;25.20;99.90
18729;DHT22;9493;51.884;5.188;2022-08-19T11:41:03;25.40;99.90
18729;DHT22;9493;51.884;5.188;2022-08-19T11:43:32;25.90;99.90
18729;DHT22;9493;51.884;5.188;2022-08-19T11:45:59;25.50;99.90
18729;DHT22;9493;51.884;5.188;2022-08-19T11:48:27;25.20;99.90
18729;DHT22;9493;51.884;5.188;2022-08-19T11:50:54;25.00;99.90
18729;DHT22;9493;51.884;5.188;2022-08-19T11:53:21;24.80;99.90
18729;DHT22;9493;51.884;5.188;2022-08-19T11:55:49;24.50;99.90
18729;DHT22;9493;51.884;5.188;2022-08-19T11:58:17;24.80;99.90
18729;DHT22;9493;51.884;5.188;2022-08-19T12:00:45;24.90;99.90
18729;DHT22;9493;51.884;5.188;2022-08-19T12:03:13;25.20;99.90
18729;DHT22;9493;51.884;5.188;2022-08-19T12:05:41;25.30;99.90
18729;DHT22;9493;51.884;5.188;2022-08-19T12:08:08;25.40;99.90
18729;DHT22;9493;51.884;5.188;2022-08-19T12:10:35;25.30;99.90
18729;DHT22;9493;51.884;5.188;2022-08-19T12:13:02;25.30;99.90
18729;DHT22;9493;51.884;5.188;2022-08-19T12:15:29;25.20;99.90
18729;DHT22;9493;51.884;5.188;2022-08-19T12:17:58;24.60;99.90
18729;DHT22;9493;51.884;5.188;2022-08-19T12:20:24;24.40;99.90
18729;DHT22;9493;51.884;5.188;2022-08-19T12:22:51;24.40;99.90
18729;DHT22;9493;51.884;5.188;2022-08-19T12:25:18;24.50;99.90
18729;DHT22;9493;51.884;5.188;2022-08-19T12:27:46;25.00;99.90
18729;DHT22;9493;51.884;5.188;2022-08-19T12:30:13;25.20;99.90
18729;DHT22;9493;51.884;5.188;2022-08-19T12:32:41;25.40;99.90
18729;DHT22;9493;51.884;5.188;2022-08-19T12:35:09;25.50;99.90
18729;DHT22;9493;51.884;5.188;2022-08-19T12:37:37;25.80;99.90
18729;DHT22;9493;51.884;5.188;2022-08-19T12:40:04;26.40;99.90
18729;DHT22;9493;51.884;5.188;2022-08-19T12:42:32;26.00;99.90
18729;DHT22;9493;51.884;5.188;2022-08-19T12:44:58;26.00;99.90
18729;DHT22;9493;51.884;5.188;2022-08-19T12:47:25;26.50;99.90
18729;DHT22;9493;51.884;5.188;2022-08-19T12:49:52;26.60;99.90
18729;DHT22;9493;51.884;5.188;2022-08-19T12:52:22;26.00;99.90
18729;DHT22;9493;51.884;5.188;2022-08-19T12:54:49;25.80;99.90
18729;DHT22;9493;51.884;5.188;2022-08-19T12:57:16;25.90;99.90
18729;DHT22;9493;51.884;5.188;2022-08-19T12:59:43;26.10;99.90
18729;DHT22;9493;51.884;5.188;2022-08-19T13:02:10;26.50;99.90
18729;DHT22;9493;51.884;5.188;2022-08-19T13:04:37;26.30;99.90
18729;DHT22;9493;51.884;5.188;2022-08-19T13:07:06;25.50;99.90
18729;DHT22;9493;51.884;5.188;2022-08-19T13:09:34;25.40;99.90
18729;DHT22;9493;51.884;5.188;2022-08-19T13:12:02;25.50;99.90
18729;DHT22;9493;51.884;5.188;2022-08-19T13:14:33;25.70;99.90
18729;DHT22;9493;51.884;5.188;2022-08-19T13:17:00;25.50;99.90
18729;DHT22;9493;51.884;5.188;2022-08-19T13:19:27;25.30;99.90
18729;DHT22;9493;51.884;5.188;2022-08-19T13:21:53;24.90;99.90
18729;DHT22;9493;51.884;5.188;2022-08-19T13:24:21;24.70;99.90
18729;DHT22;9493;51.884;5.188;2022-08-19T13:26:49;24.80;99.90
18729;DHT22;9493;51.884;5.188;2022-08-19T13:29:16;25.00;99.90
18729;DHT22;9493;51.884;5.188;2022-08-19T13:32:00;25.00;99.90
18729;DHT22;9493;51.884;5.188;2022-08-19T13:34:44;24.90;99.90
18729;DHT22;9493;51.884;5.188;2022-08-19T13:37:12;24.50;99.90
18729;DHT22;9493;51.884;5.188;2022-08-19T13:39:39;24.20;99.90
18729;DHT22;9493;51.884;5.188;2022-08-19T13:42:07;24.40;99.90
18729;DHT22;9493;51.884;5.188;2022-08-19T13:44:35;24.20;99.90
18729;DHT22;9493;51.884;5.188;2022-08-19T13:47:04;24.40;99.90
18729;DHT22;9493;51.884;5.188;2022-08-19T13:49:32;24.20;99.90
18729;DHT22;9493;51.884;5.188;2022-08-19T13:51:59;24.40;99.90
18729;DHT22;9493;51.884;5.188;2022-08-19T13:54:26;24.40;99.90
18729;DHT22;9493;51.884;5.188;2022-08-19T13:56:53;24.40;99.90
18729;DHT22;9493;51.884;5.188;2022-08-19T13:59:21;24.60;99.90
18729;DHT22;9493;51.884;5.188;2022-08-19T14:01:48;24.40;99.90
18729;DHT22;9493;51.884;5.188;2022-08-19T14:04:15;24.40;99.90
18729;DHT22;9493;51.884;5.188;2022-08-19T14:06:42;24.40;99.90
18729;DHT22;9493;51.884;5.188;2022-08-19T14:09:08;24.30;99.90
18729;DHT22;9493;51.884;5.188;2022-08-19T14:11:35;24.20;99.90
18729;DHT22;9493;51.884;5.188;2022-08-19T14:14:02;23.90;99.90
18729;DHT22;9493;51.884;5.188;2022-08-19T14:16:31;23.90;99.90
18729;DHT22;9493;51.884;5.188;2022-08-19T14:18:58;23.90;99.90
18729;DHT22;9493;51.884;5.188;2022-08-19T14:21:25;23.80;99.90
18729;DHT22;9493;51.884;5.188;2022-08-19T14:23:52;23.90;99.90
18729;DHT22;9493;51.884;5.188;2022-08-19T14:26:22;23.80;99.90
18729;DHT22;9493;51.884;5.188;2022-08-19T14:28:49;23.70;99.90
18729;DHT22;9493;51.884;5.188;2022-08-19T14:31:18;23.80;99.90
18729;DHT22;9493;51.884;5.188;2022-08-19T14:33:47;23.80;99.90
18729;DHT22;9493;51.884;5.188;2022-08-19T14:36:13;23.80;99.90
18729;DHT22;9493;51.884;5.188;2022-08-19T14:38:41;23.70;99.90
18729;DHT22;9493;51.884;5.188;2022-08-19T14:41:10;23.60;99.90
18729;DHT22;9493;51.884;5.188;2022-08-19T14:43:37;23.30;99.90
18729;DHT22;9493;51.884;5.188;2022-08-19T14:46:05;23.30;99.90
18729;DHT22;9493;51.884;5.188;2022-08-19T14:48:33;23.30;99.90
18729;DHT22;9493;51.884;5.188;2022-08-19T14:51:03;23.30;99.90
18729;DHT22;9493;51.884;5.188;2022-08-19T14:53:30;23.40;99.90
18729;DHT22;9493;51.884;5.188;2022-08-19T14:55:58;23.40;99.90
18729;DHT22;9493;51.884;5.188;2022-08-19T14:58:26;23.60;99.90
18729;DHT22;9493;51.884;5.188;2022-08-19T15:00:52;23.70;99.90
18729;DHT22;9493;51.884;5.188;2022-08-19T15:03:19;23.90;99.90
18729;DHT22;9493;51.884;5.188;2022-08-19T15:05:46;24.10;99.90
18729;DHT22;9493;51.884;5.188;2022-08-19T15:08:14;24.10;99.90
18729;DHT22;9493;51.884;5.188;2022-08-19T15:10:41;24.30;99.90
18729;DHT22;9493;51.884;5.188;2022-08-19T15:13:08;24.00;99.90
18729;DHT22;9493;51.884;5.188;2022-08-19T15:15:35;24.00;99.90
18729;DHT22;9493;51.884;5.188;2022-08-19T15:18:02;23.60;99.90
18729;DHT22;9493;51.884;5.188;2022-08-19T15:20:29;23.60;99.90
18729;DHT22;9493;51.884;5.188;2022-08-19T15:22:56;23.80;99.90
18729;DHT22;9493;51.884;5.188;2022-08-19T15:25:25;23.90;99.90
18729;DHT22;9493;51.884;5.188;2022-08-19T15:27:52;24.00;99.90
18729;DHT22;9493;51.884;5.188;2022-08-19T15:30:21;23.90;99.90
18729;DHT22;9493;51.884;5.188;2022-08-19T15:32:48;24.00;99.90
18729;DHT22;9493;51.884;5.188;2022-08-19T15:35:16;24.20;99.90
18729;DHT22;9493;51.884;5.188;2022-08-19T15:37:45;24.20;99.90
18729;DHT22;9493;51.884;5.188;2022-08-19T15:40:12;24.40;99.90
18729;DHT22;9493;51.884;5.188;2022-08-19T15:42:40;24.40;99.90
18729;DHT22;9493;51.884;5.188;2022-08-19T15:45:08;24.50;99.90
18729;DHT22;9493;51.884;5.188;2022-08-19T15:47:36;24.40;99.90
18729;DHT22;9493;51.884;5.188;2022-08-19T15:50:05;24.30;99.90
18729;DHT22;9493;51.884;5.188;2022-08-19T15:52:32;24.10;99.90
18729;DHT22;9493;51.884;5.188;2022-08-19T15:54:59;24.00;99.90